Startpagina
METAR-TAF:

METAR-TAF

Vliegvelden :

Aeropuerto Internacional Ministro Pistarini

Ezeiza, Argentinië

breedte: 34-49S, lengte: 058-32W, hoogte: 20 m

Actueel weer

Dit bericht is 48 minuten geleden gemaakt, om 23:00 UTC
Wind 4 kt uit het noorden
Temperatuur 24°C
Vochtigheid 50%
Druk 1013 hPa
Zicht 10 km of meer
geen wolken onder 1500 m en geen cumulonimbus

METAR: SAEZ 232300Z 35004KT CAVOK 24/13 Q1013 NOSIG

Tijdstip: 20:48 (23:48 UTC)

Verwachting

Dit bericht is 6 uur en het 48 minuten geleden gemaakt, om 17:00 UTC
Verwachting geldig van 23 om 18 UTC tot 24 om 18 UTC
Wind 6 kt uit het noordoosten
Zicht 10 km of meer
Weinig wolken op 3000 ft
Wijzigt naar
van 24 om 00 UTC tot 24 om 02 UTC
Wind 10 kt uit het oostnoordoosten
Zicht 10 km of meer
geen wolken onder 1500 m en geen cumulonimbus
Wijzigt naar
van 24 om 12 UTC tot 24 om 15 UTC
Wind 10 kt uit het noorden met uitschieters tot 20 kt

TAF: SAEZ 231700Z 2318/2418 04006KT 9999 FEW030 TX29/2418Z TN17/2409Z BECMG 2400/2402 07010KT CAVOK BECMG 2412/2415 36010G20KT

Waarnemingen en weersverwachtingen van meer dan 4000 vliegvelden (METAR en TAF).

De beschikbare stations zijn de gele en rode punten op de kaart.

Ga met uw muis naar het station om de naam te zien.

Klik dan om waarnemingen en weersverwachtingen te zien.

kaart wijzigen: klik op de groene knoppen met een zwart kruis om in te zoomen, op de groene knop met een streepje om uit te zoomen of op de groene pijlen voor aangrenzende kaarten.


METAR-TAF: